createdAt,value
2023-04-18T00:04:05.469Z,101441.84
2023-04-18T00:09:08.500Z,101444.11
2023-04-18T00:14:12.270Z,101444.83
2023-04-18T00:19:15.672Z,101448.74
2023-04-18T00:24:18.487Z,101449.47
2023-04-18T00:29:21.271Z,101449.75
2023-04-18T00:34:24.122Z,101447.90
2023-04-18T00:39:26.988Z,101447.77
2023-04-18T00:44:31.488Z,101450.30
2023-04-18T00:49:34.338Z,101453.09
2023-04-18T00:54:37.075Z,101450.34
2023-04-18T00:59:39.883Z,101453.05
2023-04-18T01:04:43.757Z,101453.36
2023-04-18T01:09:46.578Z,101452.67
2023-04-18T01:14:49.416Z,101450.91
2023-04-18T01:19:52.227Z,101452.77
2023-04-18T01:24:55.873Z,101450.27
2023-04-18T01:29:58.738Z,101451.70
2023-04-18T01:35:01.889Z,101449.56
2023-04-18T01:40:05.504Z,101446.00
2023-04-18T01:45:08.548Z,101448.52
2023-04-18T01:50:11.597Z,101445.16
2023-04-18T01:55:14.446Z,101444.72
2023-04-18T02:00:17.782Z,101439.62
2023-04-18T02:05:20.775Z,101439.13
2023-04-18T02:10:23.995Z,101439.91
2023-04-18T02:15:26.867Z,101442.04
2023-04-18T02:20:33.682Z,101436.27
2023-04-18T02:25:36.573Z,101428.29
2023-04-18T02:30:39.442Z,101425.43
2023-04-18T02:35:42.347Z,101421.88
2023-04-18T02:40:45.745Z,101424.29
2023-04-18T02:45:48.671Z,101428.05
2023-04-18T02:50:51.496Z,101430.34
2023-04-18T02:55:54.327Z,101430.20
2023-04-18T03:00:58.065Z,101429.40
2023-04-18T03:06:01.013Z,101430.57
2023-04-18T03:11:04.127Z,101432.27
2023-04-18T03:16:07.088Z,101434.52
2023-04-18T03:21:09.952Z,101436.50
2023-04-18T03:26:13.950Z,101441.02
2023-04-18T03:31:16.789Z,101441.72
2023-04-18T03:36:21.220Z,101449.23
2023-04-18T03:41:24.170Z,101447.92
2023-04-18T03:46:26.972Z,101449.88
2023-04-18T03:51:42.790Z,101453.73
2023-04-18T03:56:45.635Z,101455.64
2023-04-18T04:01:48.603Z,101459.86
2023-04-18T04:06:51.364Z,101460.30
2023-04-18T04:11:54.159Z,101459.52
2023-04-18T04:16:56.924Z,101460.48
2023-04-18T04:21:59.724Z,101461.56
2023-04-18T04:27:03.696Z,101460.73
2023-04-18T04:32:07.102Z,101464.07
2023-04-18T04:37:09.981Z,101468.14
2023-04-18T04:42:13.436Z,101470.14
2023-04-18T04:47:16.395Z,101474.44
2023-04-18T04:52:19.405Z,101479.27
2023-04-18T04:57:22.247Z,101480.00
2023-04-18T05:02:25.260Z,101479.80
2023-04-18T05:07:28.376Z,101484.29
2023-04-18T05:12:31.476Z,101484.52
2023-04-18T05:17:34.238Z,101482.85
2023-04-18T05:22:37.154Z,101483.35
2023-04-18T05:27:40.087Z,101484.59
2023-04-18T05:32:43.264Z,101486.59
2023-04-18T05:37:46.141Z,101486.02
2023-04-18T05:42:48.881Z,101485.79
2023-04-18T05:47:53.853Z,101491.23
2023-04-18T05:52:59.310Z,101495.61
2023-04-18T05:58:02.253Z,101495.95
2023-04-18T06:03:05.837Z,101495.89
2023-04-18T06:08:10.720Z,101500.77
2023-04-18T06:13:13.603Z,101500.43
2023-04-18T06:18:16.603Z,101503.31
2023-04-18T06:23:19.515Z,101502.82
2023-04-18T06:28:22.359Z,101501.72
2023-04-18T06:33:25.281Z,101505.98
2023-04-18T06:38:28.144Z,101509.04
2023-04-18T06:43:31.344Z,101504.25
2023-04-18T06:48:34.334Z,101510.02
2023-04-18T06:53:37.172Z,101510.40
2023-04-18T06:58:40.203Z,101511.09
2023-04-18T07:03:43.142Z,101514.20
2023-04-18T07:08:46.294Z,101516.98
2023-04-18T07:13:50.309Z,101512.98
2023-04-18T07:18:53.200Z,101513.85
2023-04-18T07:23:55.994Z,101511.72
2023-04-18T07:28:58.793Z,101515.02
2023-04-18T07:34:01.541Z,101512.13
2023-04-18T07:39:04.310Z,101509.75
2023-04-18T07:44:07.121Z,101515.61
2023-04-18T07:49:09.925Z,101516.15
2023-04-18T07:54:12.979Z,101520.32
2023-04-18T07:59:15.951Z,101520.30
2023-04-18T08:04:19.189Z,101524.40
2023-04-18T08:09:22.084Z,101527.25
2023-04-18T08:14:25.100Z,101526.10
2023-04-18T08:19:28.142Z,101520.45
2023-04-18T08:24:30.926Z,101521.26
2023-04-18T08:29:33.680Z,101518.83
2023-04-18T08:34:36.447Z,101516.63
2023-04-18T08:39:39.331Z,101517.80
2023-04-18T08:44:45.203Z,101518.58
2023-04-18T08:49:49.340Z,101516.18
2023-04-18T08:54:52.685Z,101510.21
2023-04-18T08:59:56.574Z,101507.89
2023-04-18T09:04:59.823Z,101503.45
2023-04-18T09:10:02.670Z,101499.16
2023-04-18T09:15:16.427Z,101497.89
2023-04-18T09:20:41.324Z,101491.80
2023-04-18T09:25:49.270Z,101484.48
2023-04-18T09:30:52.765Z,101486.65
2023-04-18T09:35:57.252Z,101481.09
2023-04-18T09:41:20.847Z,101480.90
2023-04-18T09:46:24.449Z,101481.89
2023-04-18T09:51:27.416Z,101482.25
2023-04-18T09:56:32.001Z,101483.36
2023-04-18T10:01:35.048Z,101478.36
2023-04-18T10:06:42.180Z,101476.81
2023-04-18T10:11:44.957Z,101471.60
2023-04-18T10:16:49.950Z,101472.45
2023-04-18T10:22:01.052Z,101463.80
2023-04-18T10:27:04.194Z,101461.21
2023-04-18T10:32:07.739Z,101458.15
2023-04-18T10:37:12.972Z,101452.61
2023-04-18T10:42:15.969Z,101454.61
2023-04-18T10:47:21.024Z,101450.83
2023-04-18T10:52:24.042Z,101448.00
2023-04-18T10:57:38.974Z,101441.70
2023-04-18T11:02:52.269Z,101438.94
2023-04-18T11:07:55.444Z,101436.21
2023-04-18T11:13:04.404Z,101430.36
2023-04-18T11:18:09.197Z,101426.21
2023-04-18T11:23:21.494Z,101420.23
2023-04-18T11:28:27.181Z,101418.75
2023-04-18T11:33:30.092Z,101419.73
2023-04-18T11:38:34.708Z,101416.38
2023-04-18T11:43:37.647Z,101414.14
2023-04-18T11:48:42.404Z,101415.04
2023-04-18T11:53:45.537Z,101412.69
2023-04-18T11:58:48.430Z,101406.60
2023-04-18T12:04:08.049Z,101408.48
2023-04-18T12:09:15.348Z,101403.82
2023-04-18T12:14:21.947Z,101398.02
2023-04-18T12:19:28.279Z,101393.48
2023-04-18T12:24:32.379Z,101389.59
2023-04-18T12:29:35.671Z,101385.09
2023-04-18T12:34:38.488Z,101383.47
2023-04-18T12:39:42.605Z,101376.02
2023-04-18T12:44:47.898Z,101370.73
2023-04-18T12:49:50.782Z,101366.92
2023-04-18T12:54:56.366Z,101365.09
2023-04-18T13:00:00.049Z,101362.41
2023-04-18T13:05:05.508Z,101358.77
2023-04-18T13:10:13.816Z,101354.33
2023-04-18T13:15:16.818Z,101352.80
2023-04-18T13:20:19.618Z,101346.05
2023-04-18T13:25:22.870Z,101335.88
2023-04-18T13:30:25.814Z,101335.02
2023-04-18T13:35:28.592Z,101334.41
2023-04-18T13:40:33.476Z,101335.08
2023-04-18T13:45:36.398Z,101327.79
2023-04-18T13:50:39.890Z,101320.27
2023-04-18T13:55:42.856Z,101319.64
2023-04-18T14:00:45.935Z,101320.58
2023-04-18T14:05:48.914Z,101317.11
2023-04-18T14:10:51.831Z,101317.85
2023-04-18T14:15:54.917Z,101310.30
2023-04-18T14:20:58.222Z,101308.81
2023-04-18T14:26:01.071Z,101303.33
2023-04-18T14:31:06.499Z,101298.40
2023-04-18T14:36:09.864Z,101296.48
2023-04-18T14:41:12.697Z,101298.20
2023-04-18T14:46:18.573Z,101293.85
2023-04-18T14:51:21.403Z,101294.25
2023-04-18T14:56:24.369Z,101287.98
2023-04-18T15:01:27.185Z,101286.89
2023-04-18T15:06:30.132Z,101282.98
2023-04-18T15:11:33.005Z,101283.77
2023-04-18T15:16:38.125Z,101285.52
2023-04-18T15:21:41.112Z,101280.38
2023-04-18T15:26:44.006Z,101279.14
2023-04-18T15:31:47.299Z,101284.17
2023-04-18T15:36:50.059Z,101286.35
2023-04-18T15:41:56.646Z,101290.44
2023-04-18T15:47:01.214Z,101287.33
2023-04-18T15:52:06.264Z,101285.67
2023-04-18T15:57:10.357Z,101279.48
2023-04-18T16:02:13.169Z,101280.61
2023-04-18T16:07:16.590Z,101279.20
2023-04-18T16:12:19.316Z,101270.98
2023-04-18T16:17:22.060Z,101271.21
2023-04-18T16:22:26.007Z,101270.54
2023-04-18T16:27:28.976Z,101266.33
2023-04-18T16:32:31.910Z,101264.77
2023-04-18T16:37:34.837Z,101263.95
2023-04-18T16:42:37.719Z,101262.38
2023-04-18T16:47:40.745Z,101256.41
2023-04-18T16:52:43.680Z,101253.74
2023-04-18T16:57:46.468Z,101258.05
2023-04-18T17:02:49.453Z,101252.75
2023-04-18T17:07:52.679Z,101251.15
2023-04-18T17:12:55.555Z,101248.13
2023-04-18T17:18:00.338Z,101247.61
2023-04-18T17:23:03.329Z,101246.35
2023-04-18T17:28:06.186Z,101247.40
2023-04-18T17:33:10.209Z,101245.64
2023-04-18T17:38:13.402Z,101248.71
2023-04-18T17:43:16.446Z,101241.74
2023-04-18T17:48:19.299Z,101243.17
2023-04-18T17:53:22.289Z,101243.03
2023-04-18T17:58:26.170Z,101245.80
2023-04-18T18:03:29.096Z,101243.23
2023-04-18T18:08:32.358Z,101245.37
2023-04-18T18:13:39.051Z,101245.88
2023-04-18T18:18:42.018Z,101245.45
2023-04-18T18:23:44.926Z,101241.74
2023-04-18T18:28:47.907Z,101237.17
2023-04-18T18:33:53.798Z,101236.39
2023-04-18T18:38:57.912Z,101230.24
2023-04-18T18:44:00.843Z,101227.83
2023-04-18T18:49:04.105Z,101226.71
2023-04-18T18:54:07.289Z,101223.52
2023-04-18T18:59:10.157Z,101217.41
2023-04-18T19:04:13.211Z,101213.83
2023-04-18T19:09:16.531Z,101205.72
2023-04-18T19:14:19.419Z,101207.41
2023-04-18T19:19:22.216Z,101204.52
2023-04-18T19:24:25.192Z,101199.41
2023-04-18T19:29:29.200Z,101193.81
2023-04-18T19:34:33.589Z,101193.80
2023-04-18T19:39:36.635Z,101190.92
2023-04-18T19:44:39.545Z,101185.23
2023-04-18T19:49:42.325Z,101185.61
2023-04-18T19:54:45.124Z,101181.34
2023-04-18T19:59:47.880Z,101178.02
2023-04-18T20:04:51.862Z,101177.63
2023-04-18T20:09:54.829Z,101177.55
2023-04-18T20:14:58.856Z,101172.73
2023-04-18T20:20:01.767Z,101167.96
2023-04-18T20:25:05.853Z,101164.52
2023-04-18T20:30:08.927Z,101159.27
2023-04-18T20:35:11.950Z,101157.91
2023-04-18T20:40:14.861Z,101154.64
2023-04-18T20:45:18.131Z,101147.21
2023-04-18T20:50:21.010Z,101149.98
2023-04-18T20:55:24.079Z,101144.54
2023-04-18T21:00:26.820Z,101143.02
2023-04-18T21:05:29.690Z,101138.69
2023-04-18T21:10:32.548Z,101127.68
2023-04-18T21:15:35.868Z,101124.08
2023-04-18T21:20:38.712Z,101119.04
2023-04-18T21:25:41.586Z,101114.55
2023-04-18T21:30:44.306Z,101109.13
2023-04-18T21:35:47.099Z,101102.73
2023-04-18T21:40:49.829Z,101097.73
2023-04-18T21:45:52.743Z,101093.35
2023-04-18T21:50:55.888Z,101093.91
2023-04-18T21:55:58.618Z,101091.98
2023-04-18T22:01:01.500Z,101086.59
2023-04-18T22:06:04.555Z,101082.08
2023-04-18T22:11:09.205Z,101079.39
2023-04-18T22:16:15.309Z,101077.36
2023-04-18T22:21:18.193Z,101077.08
2023-04-18T22:26:21.071Z,101073.60
2023-04-18T22:31:23.964Z,101067.95
2023-04-18T22:36:27.789Z,101068.34
2023-04-18T22:41:30.584Z,101058.40
2023-04-18T22:46:33.351Z,101055.69
2023-04-18T22:51:36.226Z,101053.25
2023-04-18T22:56:39.310Z,101050.02
2023-04-18T23:01:42.256Z,101044.01
2023-04-18T23:07:16.991Z,101041.17
2023-04-18T23:12:19.828Z,101031.38
2023-04-18T23:17:22.690Z,101021.06
2023-04-18T23:22:25.611Z,101013.34
2023-04-18T23:27:29.687Z,101011.75
2023-04-18T23:32:34.133Z,101009.05
2023-04-18T23:37:38.122Z,101003.44
2023-04-18T23:42:41.069Z,101005.70
2023-04-18T23:47:43.812Z,101000.15
2023-04-18T23:52:46.735Z,100995.91
2023-04-18T23:57:49.546Z,100985.34
